.
WxDataArchive / Data Records for 2012-10-30
2012-10-29 October 2012 2012-10-31

Data Records for Tuesday, 30 October 2012

Time	Temp	Chill	HIndex	Humid	Dewpt	 Wind 	HiWind	WindDir	Rain 	Barom 
-----	----	-----	------	-----	-----	------	------	-------	-----	----- 
00:00	41.3	41.3	41.3	44	21.0	3	7	338	0.00	29.787 
00:05	41.3	38.8	41.3	44	21.0	4	8	338	0.00	29.787 
00:10	41.3	38.8	41.3	45	21.6	4	10	338	0.00	29.787 
00:15	41.3	38.8	41.3	45	21.6	4	9	0	0.00	29.778 
00:20	41.2	38.7	41.2	45	21.5	4	11	315	0.00	29.778 
00:25	41.2	38.7	41.2	45	21.5	4	10	315	0.00	29.778 
00:30	41.2	41.2	41.2	46	22.0	3	11	0	0.00	29.771 
00:35	41.2	38.7	41.2	45	21.5	4	10	315	0.00	29.771 
00:40	41.2	38.7	41.2	45	21.5	4	12	338	0.00	29.771 
00:45	41.1	41.1	41.1	46	21.9	3	10	315	0.00	29.766 
00:50	41.1	37.8	41.1	46	21.9	5	13	338	0.00	29.766 
00:55	41.1	37.8	41.1	46	21.9	5	13	338	0.00	29.766 
01:00	41.1	37.8	41.1	46	21.9	5	10	338	0.00	29.756 
01:05	41.1	37.8	41.1	46	21.9	5	11	315	0.00	29.756 
01:10	41.1	38.6	41.1	46	21.9	4	8	338	0.00	29.756 
01:15	40.9	37.5	40.9	46	21.7	5	13	292	0.00	29.748 
01:20	40.9	38.4	40.9	46	21.7	4	11	338	0.00	29.748 
01:25	40.9	40.9	40.9	46	21.7	3	9	338	0.00	29.748 
01:30	40.9	38.4	40.9	46	21.7	4	10	338	0.00	29.737 
01:35	40.9	37.5	40.9	46	21.7	5	12	338	0.00	29.737 
01:40	40.9	37.5	40.9	47	22.2	5	10	315	0.00	29.737 
01:45	40.8	37.4	40.8	47	22.1	5	17	338	0.00	29.725 
01:50	40.8	38.2	40.8	47	22.1	4	10	338	0.00	29.725 
01:55	40.8	40.8	40.8	47	22.1	3	6	315	0.00	29.725 
02:00	40.8	37.4	40.8	47	22.1	5	12	338	0.00	29.719 
02:05	40.8	38.2	40.8	47	22.1	4	13	338	0.00	29.719 
02:10	40.8	38.2	40.8	48	22.6	4	14	338	0.00	29.719 
02:15	40.6	38.0	40.6	48	22.5	4	7	315	0.00	29.710 
02:20	40.6	37.2	40.6	48	22.5	5	13	338	0.00	29.710 
02:25	40.6	38.0	40.6	48	22.5	4	11	315	0.00	29.710 
02:30	40.6	37.2	40.6	48	22.5	5	13	315	0.00	29.703 
02:35	40.6	38.0	40.6	48	22.5	4	11	315	0.00	29.703 
02:40	40.6	38.0	40.6	49	23.0	4	9	315	0.00	29.703 
02:45	40.6	38.0	40.6	49	23.0	4	10	338	0.00	29.690 
02:50	40.6	38.0	40.6	49	23.0	4	9	338	0.00	29.690 
02:55	40.6	38.0	40.6	50	23.4	4	10	315	0.00	29.690 
03:00	40.6	38.0	40.6	50	23.4	4	11	315	0.00	29.678 
03:05	40.6	37.2	40.6	50	23.4	5	13	338	0.00	29.678 
03:10	40.6	37.2	40.6	50	23.4	5	11	292	0.00	29.678 
03:15	40.6	37.2	40.6	50	23.4	5	11	338	0.00	29.673 
03:20	40.6	37.2	40.6	50	23.4	5	12	338	0.00	29.673 
03:25	40.5	37.1	40.5	51	23.8	5	12	315	0.00	29.673 
03:30	40.2	36.7	40.2	52	24.0	5	12	338	0.00	29.670 
03:35	40.1	36.6	40.1	53	24.4	5	11	338	0.00	29.670 
03:40	39.9	37.2	39.9	54	24.6	4	10	338	0.00	29.670 
03:45	39.6	36.9	39.6	55	24.8	4	11	315	0.00	29.660 
03:50	39.3	36.5	39.3	57	25.4	4	8	338	0.00	29.660 
03:55	39.2	36.4	39.2	57	25.3	4	12	315	0.00	29.660 
04:00	39.3	35.7	39.3	57	25.4	5	11	315	0.00	29.656 
04:05	39.2	34.8	39.2	57	25.3	6	13	292	0.00	29.656 
04:10	39.2	36.4	39.2	58	25.7	4	12	338	0.00	29.656 
04:15	38.9	35.2	38.9	59	25.8	5	12	338	0.00	29.650 
04:20	38.8	35.9	38.8	60	26.1	4	9	315	0.00	29.650 
04:25	38.8	35.1	38.8	60	26.1	5	12	315	0.00	29.650 
04:30	38.5	38.5	38.5	62	26.6	3	10	338	0.00	29.644 
04:35	38.5	35.6	38.5	62	26.6	4	9	315	0.00	29.644 
04:40	38.5	35.6	38.5	62	26.6	4	9	338	0.00	29.644 
04:45	38.3	35.4	38.3	62	26.4	4	11	338	0.00	29.640 
04:50	38.3	38.3	38.3	63	26.8	3	10	338	0.00	29.640 
04:55	38.3	34.5	38.3	62	26.4	5	18	292	0.00	29.640 
05:00	38.5	34.7	38.5	62	26.6	5	12	315	0.00	29.632 
05:05	38.3	35.4	38.3	62	26.4	4	10	338	0.00	29.632 
05:10	38.3	35.4	38.3	63	26.8	4	10	338	0.00	29.632 
05:15	38.2	34.4	38.2	64	27.1	5	11	315	0.00	29.628 
05:20	38.0	34.1	38.0	64	26.9	5	15	315	0.00	29.628 
05:25	37.9	34.9	37.9	65	27.2	4	10	315	0.00	29.628 
05:30	38.0	38.0	38.0	65	27.3	3	7	315	0.00	29.620 
05:35	38.0	35.0	38.0	65	27.3	4	10	315	0.00	29.620 
05:40	38.0	34.1	38.0	65	27.3	5	11	292	0.00	29.620 
05:45	37.9	34.9	37.9	66	27.6	4	10	315	0.00	29.615 
05:50	37.6	34.5	37.6	68	28.0	4	12	338	0.00	29.615 
05:55	37.3	34.2	37.3	69	28.1	4	10	292	0.00	29.615 
06:00	37.2	33.2	37.2	70	28.3	5	11	292	0.00	29.611 
06:05	37.2	33.2	37.2	71	28.7	5	12	315	0.00	29.611 
06:10	37.0	32.2	37.0	71	28.5	6	14	315	0.00	29.611 
06:15	36.9	32.8	36.9	73	29.1	5	10	292	0.01	29.601 
06:20	36.8	32.7	36.8	73	29.0	5	13	315	0.00	29.601 
06:25	36.5	33.3	36.5	75	29.3	4	17	315	0.00	29.601 
06:30	36.3	32.1	36.3	76	29.5	5	12	315	0.00	29.602 
06:35	36.2	32.0	36.2	77	29.7	5	11	292	0.01	29.602 
06:40	36.0	32.7	36.0	78	29.8	4	11	338	0.00	29.602 
06:45	35.9	35.9	35.9	79	30.0	3	9	292	0.00	29.599 
06:50	35.9	32.6	35.9	80	30.3	4	7	315	0.01	29.599 
06:55	36.0	31.8	36.0	79	30.1	5	16	315	0.00	29.599 
07:00	36.0	32.7	36.0	80	30.4	4	11	315	0.00	29.592 
07:05	35.9	32.6	35.9	80	30.3	4	11	315	0.01	29.592 
07:10	35.9	32.6	35.9	81	30.6	4	12	292	0.00	29.592 
07:15	35.8	31.5	35.8	82	30.9	5	14	315	0.01	29.586 
07:20	35.8	31.5	35.8	82	30.9	5	13	292	0.00	29.586 
07:25	35.8	32.5	35.8	82	30.9	4	13	338	0.00	29.586 
07:30	35.9	32.6	35.9	83	31.2	4	11	338	0.01	29.582 
07:35	36.0	31.0	36.0	83	31.3	6	15	292	0.00	29.582 
07:40	36.0	32.7	36.0	83	31.3	4	12	292	0.00	29.582 
07:45	36.0	31.8	36.0	83	31.3	5	14	338	0.00	29.578 
07:50	36.2	32.9	36.2	82	31.2	4	9	315	0.00	29.578 
07:55	36.3	32.1	36.3	82	31.3	5	12	338	0.00	29.578 
08:00	36.5	33.3	36.5	82	31.5	4	9	292	0.00	29.572 
08:05	36.5	32.4	36.5	82	31.5	5	10	315	0.00	29.572 
08:10	36.5	32.4	36.5	82	31.5	5	11	315	0.00	29.572 
08:15	36.6	32.5	36.6	82	31.6	5	10	338	0.00	29.573 
08:20	36.8	33.6	36.8	82	31.8	4	7	292	0.00	29.573 
08:25	36.8	32.7	36.8	81	31.5	5	12	292	0.00	29.573 
08:30	36.9	33.7	36.9	81	31.6	4	9	315	0.00	29.576 
08:35	36.9	33.7	36.9	82	31.9	4	14	315	0.00	29.576 
08:40	36.9	33.7	36.9	82	31.9	4	11	338	0.00	29.576 
08:45	36.9	36.9	36.9	83	32.2	3	10	292	0.01	29.578 
08:50	36.9	33.7	36.9	84	32.5	4	10	315	0.00	29.578 
08:55	36.9	33.7	36.9	84	32.5	4	12	338	0.00	29.578 
09:00	36.9	36.9	36.9	84	32.5	3	9	270	0.00	29.578 
09:05	37.0	33.9	37.0	84	32.6	4	10	315	0.00	29.578 
09:10	37.0	37.0	37.0	84	32.6	3	9	315	0.00	29.578 
09:15	37.2	34.1	37.2	84	32.8	4	10	292	0.00	29.572 
09:20	37.2	37.2	37.2	84	32.8	3	7	292	0.00	29.572 
09:25	37.2	37.2	37.2	85	33.1	3	9	315	0.00	29.572 
09:30	37.2	37.2	37.2	85	33.1	3	9	338	0.00	29.568 
09:35	37.3	37.3	37.3	85	33.2	3	10	338	0.00	29.568 
09:40	37.3	34.2	37.3	85	33.2	4	10	315	0.00	29.568 
09:45	37.2	37.2	37.2	85	33.1	3	8	315	0.00	29.568 
09:50	37.0	33.9	37.0	86	33.2	4	10	338	0.01	29.568 
09:55	37.2	34.1	37.2	86	33.4	4	11	315	0.00	29.568 
10:00	37.0	37.0	37.0	86	33.2	3	12	292	0.00	29.566 
10:05	37.0	32.9	37.0	86	33.2	5	16	338	0.00	29.566 
10:10	37.0	37.0	37.0	87	33.5	3	10	315	0.00	29.566 
10:15	36.9	33.7	36.9	87	33.4	4	8	315	0.01	29.567 
10:20	36.9	32.8	36.9	87	33.4	5	11	292	0.00	29.567 
10:25	37.0	33.9	37.0	87	33.5	4	9	338	0.00	29.567 
10:30	37.0	33.9	37.0	87	33.5	4	10	315	0.00	29.564 
10:35	37.0	33.9	37.0	87	33.5	4	12	315	0.01	29.564 
10:40	37.2	34.1	37.2	87	33.7	4	11	338	0.00	29.564 
10:45	37.2	37.2	37.2	88	34.0	3	11	315	0.00	29.562 
10:50	37.3	34.2	37.3	88	34.1	4	11	315	0.00	29.562 
10:55	37.5	37.5	37.5	87	34.0	3	13	315	0.00	29.562 
11:00	37.5	34.4	37.5	87	34.0	4	13	292	0.00	29.563 
11:05	37.5	37.5	37.5	87	34.0	3	7	292	0.00	29.563 
11:10	37.6	34.5	37.6	87	34.1	4	10	315	0.00	29.563 
11:15	37.8	37.8	37.8	87	34.3	3	7	338	0.00	29.567 
11:20	37.8	37.8	37.8	87	34.3	3	7	292	0.00	29.567 
11:25	37.9	37.9	37.9	87	34.4	3	10	292	0.00	29.567 
11:30	37.9	34.9	37.9	87	34.4	4	9	292	0.00	29.568 
11:35	37.9	37.9	37.9	87	34.4	3	11	292	0.01	29.568 
11:40	38.0	38.0	38.0	87	34.5	2	5	0	0.00	29.568 
11:45	38.0	38.0	38.0	88	34.8	3	7	338	0.00	29.568 
11:50	38.2	38.2	38.2	87	34.7	3	6	338	0.00	29.568 
11:55	38.3	38.3	38.3	87	34.8	3	7	315	0.00	29.568 
12:00	38.3	38.3	38.3	87	34.8	3	11	338	0.00	29.568 
12:05	38.5	35.6	38.5	87	35.0	4	9	338	0.00	29.568 
12:10	38.5	38.5	38.5	87	35.0	3	7	315	0.00	29.568 
12:15	38.5	38.5	38.5	87	35.0	3	6	338	0.00	29.565 
12:20	38.5	38.5	38.5	87	35.0	3	7	315	0.00	29.565 
12:25	38.5	34.7	38.5	87	35.0	5	10	315	0.00	29.565 
12:30	38.5	38.5	38.5	87	35.0	3	10	338	0.00	29.567 
12:35	38.5	38.5	38.5	87	35.0	3	10	292	0.00	29.567 
12:40	38.5	35.6	38.5	87	35.0	4	12	338	0.00	29.567 
12:45	38.5	35.6	38.5	87	35.0	4	10	315	0.00	29.567 
12:50	38.6	38.6	38.6	87	35.1	2	12	315	0.00	29.567 
12:55	38.6	35.7	38.6	87	35.1	4	12	338	0.00	29.567 
13:00	38.6	38.6	38.6	87	35.1	3	7	338	0.00	29.567 
13:05	38.6	38.6	38.6	87	35.1	3	9	315	0.00	29.567 
13:10	38.6	38.6	38.6	87	35.1	3	10	315	0.00	29.567 
13:15	38.8	38.8	38.8	88	35.6	3	7	292	0.00	29.563 
13:20	38.8	38.8	38.8	88	35.6	3	6	338	0.00	29.563 
13:25	38.8	38.8	38.8	88	35.6	3	6	338	0.00	29.563 
13:30	38.8	38.8	38.8	88	35.6	2	9	315	0.00	29.559 
13:35	38.8	35.9	38.8	88	35.6	4	10	292	0.01	29.559 
13:40	38.8	38.8	38.8	88	35.6	2	7	292	0.00	29.559 
13:45	38.6	38.6	38.6	88	35.4	3	7	292	0.00	29.561 
13:50	38.6	38.6	38.6	88	35.4	3	7	292	0.00	29.561 
13:55	38.6	38.6	38.6	88	35.4	3	7	315	0.00	29.561 
14:00	38.8	38.8	38.8	88	35.6	3	6	315	0.00	29.562 
14:05	38.8	38.8	38.8	88	35.6	3	7	338	0.00	29.562 
14:10	38.8	38.8	38.8	88	35.6	3	7	315	0.00	29.562 
14:15	38.8	35.9	38.8	88	35.6	4	7	315	0.00	29.559 
14:20	38.8	38.8	38.8	88	35.6	3	6	338	0.00	29.559 
14:25	38.8	38.8	38.8	88	35.6	2	5	0	0.00	29.559 
14:30	38.8	38.8	38.8	88	35.6	3	9	315	0.00	29.557 
14:35	38.8	38.8	38.8	88	35.6	2	5	292	0.00	29.557 
14:40	38.6	38.6	38.6	88	35.4	3	6	292	0.00	29.557 
14:45	38.6	38.6	38.6	89	35.6	3	6	292	0.00	29.552 
14:50	38.8	35.9	38.8	89	35.8	4	10	292	0.00	29.552 
14:55	38.8	38.8	38.8	89	35.8	3	7	315	0.00	29.552 
15:00	38.9	38.9	38.9	89	35.9	2	5	292	0.00	29.552 
15:05	39.1	39.1	39.1	89	36.1	2	5	315	0.00	29.552 
15:10	39.1	39.1	39.1	88	35.9	3	9	315	0.00	29.552 
15:15	39.2	39.2	39.2	88	35.9	3	11	338	0.00	29.553 
15:20	39.2	39.2	39.2	88	35.9	3	10	338	0.00	29.553 
15:25	39.2	39.2	39.2	88	35.9	3	7	338	0.00	29.553 
15:30	39.3	39.3	39.3	88	36.0	3	5	292	0.00	29.555 
15:35	39.3	39.3	39.3	88	36.0	3	6	338	0.00	29.555 
15:40	39.3	39.3	39.3	87	35.8	3	7	338	0.00	29.555 
15:45	39.3	39.3	39.3	87	35.8	3	6	338	0.00	29.558 
15:50	39.3	36.5	39.3	87	35.8	4	7	315	0.00	29.558 
15:55	39.5	39.5	39.5	87	36.0	3	8	292	0.00	29.558 
16:00	39.5	39.5	39.5	87	36.0	3	12	338	0.00	29.563 
16:05	39.6	39.6	39.6	87	36.1	3	6	315	0.00	29.563 
16:10	39.6	39.6	39.6	87	36.1	3	10	292	0.00	29.563 
16:15	39.8	39.8	39.8	87	36.3	3	10	315	0.00	29.568 
16:20	39.8	37.1	39.8	87	36.3	4	12	292	0.00	29.568 
16:25	39.8	39.8	39.8	87	36.3	2	7	338	0.00	29.568 
16:30	39.9	39.9	39.9	86	36.1	2	4	338	0.00	29.570 
16:35	39.9	39.9	39.9	86	36.1	3	6	292	0.00	29.570 
16:40	40.1	40.1	40.1	85	36.0	2	7	292	0.00	29.570 
16:45	40.1	37.4	40.1	85	36.0	4	7	338	0.00	29.571 
16:50	40.2	40.2	40.2	85	36.1	2	13	292	0.00	29.571 
16:55	40.2	40.2	40.2	84	35.8	3	6	315	0.00	29.571 
17:00	40.3	40.3	40.3	84	35.9	3	9	315	0.00	29.571 
17:05	40.3	40.3	40.3	84	35.9	3	10	270	0.00	29.571 
17:10	40.3	40.3	40.3	83	35.6	3	7	338	0.00	29.571 
17:15	40.3	40.3	40.3	83	35.6	3	7	270	0.00	29.578 
17:20	40.3	40.3	40.3	83	35.6	3	6	292	0.00	29.578 
17:25	40.3	37.7	40.3	83	35.6	4	9	338	0.00	29.578 
17:30	40.5	40.5	40.5	83	35.8	2	10	315	0.00	29.584 
17:35	40.5	40.5	40.5	83	35.8	1	3	338	0.00	29.584 
17:40	40.3	40.3	40.3	83	35.6	2	6	315	0.00	29.584 
17:45	40.3	40.3	40.3	83	35.6	3	9	315	0.00	29.586 
17:50	40.3	40.3	40.3	84	35.9	1	5	292	0.00	29.586 
17:55	40.3	40.3	40.3	84	35.9	2	6	292	0.00	29.586 
18:00	40.3	40.3	40.3	84	35.9	2	6	338	0.00	29.589 
18:05	40.3	40.3	40.3	84	35.9	3	6	315	0.00	29.589 
18:10	40.3	40.3	40.3	83	35.6	3	7	315	0.00	29.589 
18:15	40.3	40.3	40.3	83	35.6	3	6	338	0.00	29.598 
18:20	40.3	40.3	40.3	83	35.6	2	6	338	0.00	29.598 
18:25	40.3	40.3	40.3	84	35.9	3	6	315	0.00	29.598 
18:30	40.3	40.3	40.3	84	35.9	3	11	292	0.00	29.601 
18:35	40.3	40.3	40.3	84	35.9	2	7	292	0.00	29.601 
18:40	40.3	40.3	40.3	84	35.9	3	6	292	0.00	29.601 
18:45	40.3	40.3	40.3	84	35.9	2	4	338	0.00	29.604 
18:50	40.2	40.2	40.2	84	35.8	3	9	315	0.00	29.604 
18:55	40.2	40.2	40.2	84	35.8	3	10	292	0.00	29.604 
19:00	40.2	40.2	40.2	84	35.8	1	4	292	0.00	29.613 
19:05	40.2	40.2	40.2	84	35.8	1	4	0	0.00	29.613 
19:10	40.1	40.1	40.1	85	36.0	3	6	315	0.00	29.613 
19:15	40.1	40.1	40.1	85	36.0	2	5	292	0.00	29.618 
19:20	39.9	39.9	39.9	85	35.8	3	6	315	0.00	29.618 
19:25	39.9	39.9	39.9	85	35.8	3	7	315	0.00	29.618 
19:30	39.8	39.8	39.8	86	36.0	2	10	338	0.00	29.622 
19:35	39.6	39.6	39.6	86	35.8	2	5	315	0.00	29.622 
19:40	39.5	39.5	39.5	87	36.0	3	7	315	0.00	29.622 
19:45	39.5	39.5	39.5	87	36.0	1	4	292	0.00	29.626 
19:50	39.5	39.5	39.5	87	36.0	2	6	292	0.00	29.626 
19:55	39.5	39.5	39.5	88	36.2	2	8	315	0.00	29.626 
20:00	39.3	39.3	39.3	88	36.0	3	9	338	0.00	29.631 
20:05	39.5	39.5	39.5	87	36.0	3	8	292	0.00	29.631 
20:10	39.5	39.5	39.5	87	36.0	2	6	338	0.00	29.631 
20:15	39.5	39.5	39.5	86	35.7	1	4	315	0.00	29.632 
20:20	39.6	39.6	39.6	86	35.8	1	4	292	0.00	29.632 
20:25	39.6	39.6	39.6	86	35.8	1	5	338	0.00	29.632 
20:30	39.6	39.6	39.6	86	35.8	2	5	338	0.00	29.633 
20:35	39.6	39.6	39.6	86	35.8	2	5	292	0.00	29.633 
20:40	39.6	39.6	39.6	86	35.8	2	4	292	0.00	29.633 
20:45	39.5	39.5	39.5	86	35.7	1	4	315	0.00	29.635 
20:50	39.5	39.5	39.5	86	35.7	2	6	292	0.00	29.635 
20:55	39.5	39.5	39.5	86	35.7	2	5	338	0.00	29.635 
21:00	39.5	39.5	39.5	86	35.7	1	4	315	0.00	29.633 
21:05	39.5	39.5	39.5	86	35.7	2	5	292	0.00	29.633 
21:10	39.5	39.5	39.5	86	35.7	2	4	292	0.00	29.633 
21:15	39.5	39.5	39.5	86	35.7	2	5	315	0.00	29.634 
21:20	39.5	39.5	39.5	86	35.7	2	4	338	0.00	29.634 
21:25	39.5	39.5	39.5	86	35.7	2	5	338	0.00	29.634 
21:30	39.5	39.5	39.5	86	35.7	2	5	315	0.00	29.634 
21:35	39.5	39.5	39.5	86	35.7	2	4	315	0.00	29.634 
21:40	39.3	39.3	39.3	86	35.5	2	4	315	0.00	29.634 
21:45	39.3	39.3	39.3	86	35.5	2	9	315	0.00	29.636 
21:50	39.3	39.3	39.3	86	35.5	2	4	315	0.00	29.636 
21:55	39.3	39.3	39.3	87	35.8	2	5	315	0.00	29.636 
22:00	39.2	39.2	39.2	87	35.7	2	4	315	0.00	29.635 
22:05	39.2	39.2	39.2	87	35.7	2	4	270	0.00	29.635 
22:10	39.2	39.2	39.2	87	35.7	2	6	315	0.00	29.635 
22:15	39.2	39.2	39.2	86	35.4	2	4	338	0.00	29.634 
22:20	39.2	39.2	39.2	86	35.4	2	5	315	0.00	29.634 
22:25	39.3	39.3	39.3	86	35.5	2	6	292	0.00	29.634 
22:30	39.3	39.3	39.3	86	35.5	2	5	270	0.00	29.633 
22:35	39.3	39.3	39.3	85	35.2	2	5	292	0.00	29.633 
22:40	39.2	39.2	39.2	85	35.1	2	4	292	0.00	29.633 
22:45	39.2	39.2	39.2	85	35.1	2	7	338	0.00	29.632 
22:50	39.1	39.1	39.1	86	35.3	2	5	292	0.00	29.632 
22:55	39.1	39.1	39.1	86	35.3	1	6	338	0.00	29.632 
23:00	38.8	38.8	38.8	87	35.3	2	5	315	0.00	29.632 
23:05	38.6	38.6	38.6	87	35.1	1	4	315	0.00	29.632 
23:10	38.5	38.5	38.5	88	35.3	2	5	315	0.00	29.632 
23:15	38.5	38.5	38.5	88	35.3	2	5	270	0.00	29.631 
23:20	38.5	38.5	38.5	88	35.3	2	4	292	0.00	29.631 
23:25	38.3	38.3	38.3	88	35.1	2	5	315	0.00	29.631 
23:30	38.3	38.3	38.3	89	35.3	1	4	315	0.00	29.628 
23:35	38.3	38.3	38.3	89	35.3	1	4	292	0.00	29.628 
23:40	38.3	38.3	38.3	89	35.3	2	5	315	0.00	29.628 
23:45	38.3	38.3	38.3	89	35.3	2	3	315	0.00	29.624 
23:50	38.3	38.3	38.3	89	35.3	2	4	315	0.00	29.624 
23:55	38.3	38.3	38.3	89	35.3	1	4	315	0.00	29.624 

CoCoRaHS
IN-AL-39
A2 Web Hosting
Creative Commons License
GoDaddy
search engine by freefind advanced

loaded 2018-11-13 17:17:10 • last modified 2010-11-18 10:43:29
Privacy PolicyDisclaimer
• wx.awcolley.com is powered by PmWiki v.2002016 •
• all content (unless otherwise noted) © 2018 A W Colley